createdAt,value
2023-02-19T00:02:10.014Z,9.88
2023-02-19T00:08:12.125Z,9.93
2023-02-19T00:14:17.987Z,9.83
2023-02-19T00:20:20.229Z,9.32
2023-02-19T00:26:22.923Z,11.07
2023-02-19T00:32:25.602Z,9.50
2023-02-19T00:38:28.116Z,9.52
2023-02-19T00:44:31.552Z,8.52
2023-02-19T00:50:34.050Z,8.73
2023-02-19T00:56:36.755Z,9.02
2023-02-19T01:02:39.147Z,9.10
2023-02-19T01:08:41.596Z,9.00
2023-02-19T01:14:43.987Z,8.07
2023-02-19T01:20:46.664Z,9.18
2023-02-19T01:32:51.314Z,7.97
2023-02-19T01:38:54.593Z,8.65
2023-02-19T01:45:27.862Z,8.82
2023-02-19T01:51:32.201Z,9.57
2023-02-19T01:57:37.135Z,8.77
2023-02-19T02:03:42.127Z,8.07
2023-02-19T02:10:02.983Z,8.43
2023-02-19T02:16:40.883Z,9.73
2023-02-19T02:22:58.308Z,10.20
2023-02-19T02:29:00.552Z,9.52
2023-02-19T02:35:13.848Z,8.60
2023-02-19T02:41:16.851Z,10.20
2023-02-19T02:47:38.565Z,8.57
2023-02-19T02:54:10.649Z,9.45
2023-02-19T03:00:15.968Z,9.55
2023-02-19T03:06:21.447Z,10.40
2023-02-19T03:12:46.005Z,9.73
2023-02-19T03:19:31.313Z,10.40
2023-02-19T03:25:56.356Z,10.43
2023-02-19T03:32:14.431Z,10.48
2023-02-19T03:38:40.895Z,9.38
2023-02-19T03:45:20.164Z,10.20
2023-02-19T03:51:39.636Z,10.48
2023-02-19T03:57:50.408Z,9.73
2023-02-19T04:04:01.767Z,9.55
2023-02-19T04:10:07.964Z,9.13
2023-02-19T04:16:35.550Z,9.13
2023-02-19T04:28:43.329Z,10.40
2023-02-19T04:34:45.745Z,10.48
2023-02-19T04:40:48.285Z,28.98
2023-02-19T04:46:50.642Z,9.43
2023-02-19T04:52:53.072Z,9.60
2023-02-19T04:58:56.004Z,10.25
2023-02-19T05:04:58.506Z,10.32
2023-02-19T05:11:02.938Z,9.45
2023-02-19T05:17:05.185Z,10.70
2023-02-19T05:23:07.370Z,11.40
2023-02-19T05:29:09.640Z,11.20
2023-02-19T05:35:11.920Z,11.85
2023-02-19T05:41:20.041Z,12.43
2023-02-19T05:47:22.389Z,11.88
2023-02-19T05:53:24.991Z,12.10
2023-02-19T05:59:27.936Z,12.27
2023-02-19T06:05:30.339Z,12.38
2023-02-19T06:11:33.188Z,12.52
2023-02-19T06:23:38.140Z,11.73
2023-02-19T06:29:40.444Z,11.43
2023-02-19T06:35:42.842Z,11.65
2023-02-19T06:41:45.321Z,11.80
2023-02-19T06:47:47.447Z,13.80
2023-02-19T06:53:50.285Z,11.75
2023-02-19T07:05:54.812Z,11.00
2023-02-19T07:11:57.282Z,10.13
2023-02-19T07:17:59.856Z,9.20
2023-02-19T07:24:02.087Z,10.25
2023-02-19T07:30:06.822Z,10.40
2023-02-19T07:36:09.773Z,9.60
2023-02-19T07:42:12.084Z,10.93
2023-02-19T07:48:14.366Z,10.07
2023-02-19T07:54:16.764Z,9.68
2023-02-19T08:00:20.297Z,9.95
2023-02-19T08:06:22.590Z,8.73
2023-02-19T08:18:45.768Z,8.93
2023-02-19T08:24:48.024Z,10.23
2023-02-19T08:30:51.016Z,8.63
2023-02-19T08:36:53.473Z,8.55
2023-02-19T08:48:58.292Z,8.55
2023-02-19T09:01:03.274Z,8.77
2023-02-19T09:07:08.309Z,8.15
2023-02-19T09:13:11.037Z,8.40
2023-02-19T09:19:13.417Z,7.65
2023-02-19T09:31:17.965Z,7.43
2023-02-19T09:43:24.561Z,8.13
2023-02-19T09:49:37.824Z,9.93
2023-02-19T09:55:43.183Z,8.52
2023-02-19T10:01:48.033Z,9.68
2023-02-19T10:07:53.499Z,8.52
2023-02-19T10:14:11.260Z,10.02
2023-02-19T10:20:16.173Z,7.47
2023-02-19T10:26:19.205Z,9.10
2023-02-19T10:32:24.609Z,8.80
2023-02-19T10:38:32.065Z,8.68
2023-02-19T10:44:42.494Z,7.00
2023-02-19T10:50:48.315Z,7.93
2023-02-19T10:56:50.979Z,7.63
2023-02-19T11:03:15.317Z,8.50
2023-02-19T11:09:39.215Z,9.65
2023-02-19T11:15:42.119Z,8.63
2023-02-19T11:21:44.491Z,8.05
2023-02-19T11:34:30.383Z,7.00
2023-02-19T11:40:42.121Z,7.43
2023-02-19T11:46:53.587Z,8.63
2023-02-19T11:53:01.691Z,9.85
2023-02-19T11:59:28.255Z,8.63
2023-02-19T12:05:30.205Z,7.63
2023-02-19T12:11:44.548Z,8.40
2023-02-19T12:17:58.761Z,7.47
2023-02-19T12:24:10.690Z,7.43
2023-02-19T12:30:28.621Z,6.37
2023-02-19T12:36:45.635Z,6.35
2023-02-19T12:43:11.157Z,6.22
2023-02-19T12:49:33.743Z,7.00
2023-02-19T12:55:44.848Z,6.43
2023-02-19T13:02:16.760Z,5.53
2023-02-19T13:09:05.349Z,5.65
2023-02-19T13:15:35.802Z,6.07
2023-02-19T13:21:57.378Z,6.65
2023-02-19T13:28:17.541Z,5.55
2023-02-19T13:34:44.415Z,6.07
2023-02-19T13:41:00.700Z,5.53
2023-02-19T13:47:06.426Z,3.63
2023-02-19T13:53:44.967Z,3.85
2023-02-19T13:59:48.629Z,3.80
2023-02-19T14:06:05.561Z,4.90
2023-02-19T14:12:10.920Z,5.40
2023-02-19T14:18:42.031Z,7.70
2023-02-19T14:24:44.151Z,22.83
2023-02-19T14:31:01.337Z,16.50
2023-02-19T14:37:07.223Z,7.47
2023-02-19T14:43:15.347Z,7.50
2023-02-19T14:50:05.894Z,4.70
2023-02-19T14:56:22.963Z,5.15
2023-02-19T15:02:26.594Z,5.00
2023-02-19T15:08:33.602Z,6.68
2023-02-19T15:14:35.956Z,12.50
2023-02-19T15:20:38.732Z,7.15
2023-02-19T15:26:43.066Z,4.95
2023-02-19T15:32:53.151Z,4.70
2023-02-19T15:38:57.655Z,3.78
2023-02-19T15:45:04.607Z,3.88
2023-02-19T15:51:14.010Z,3.53
2023-02-19T15:57:22.769Z,3.53
2023-02-19T16:03:27.198Z,3.75
2023-02-19T16:09:40.319Z,3.38
2023-02-19T16:15:44.277Z,3.40
2023-02-19T16:21:46.909Z,3.25
2023-02-19T16:33:51.999Z,3.58
2023-02-19T16:40:09.374Z,6.20
2023-02-19T16:46:12.767Z,4.47
2023-02-19T16:52:17.314Z,3.65
2023-02-19T16:58:19.834Z,4.88
2023-02-19T17:04:22.308Z,4.75
2023-02-19T17:10:26.827Z,4.15
2023-02-19T17:16:32.385Z,4.43
2023-02-19T17:22:35.025Z,4.80
2023-02-19T17:28:37.485Z,4.72
2023-02-19T17:34:39.586Z,4.15
2023-02-19T17:40:41.784Z,4.30
2023-02-19T17:46:47.211Z,4.25
2023-02-19T17:52:49.436Z,4.63
2023-02-19T17:58:51.753Z,5.05
2023-02-19T18:04:54.116Z,4.38
2023-02-19T18:10:56.573Z,5.03
2023-02-19T18:16:58.912Z,4.82
2023-02-19T18:23:01.441Z,5.18
2023-02-19T18:29:05.779Z,5.70
2023-02-19T18:35:08.704Z,5.47
2023-02-19T18:41:14.660Z,5.57
2023-02-19T18:47:19.321Z,6.78
2023-02-19T18:53:21.732Z,6.28
2023-02-19T18:59:26.944Z,6.20
2023-02-19T19:05:29.660Z,6.25
2023-02-19T19:11:32.691Z,6.55
2023-02-19T19:17:37.173Z,6.65
2023-02-19T19:23:39.537Z,6.60
2023-02-19T19:29:42.113Z,7.57
2023-02-19T19:35:44.363Z,7.20
2023-02-19T19:41:46.581Z,7.97
2023-02-19T19:47:53.598Z,7.22
2023-02-19T19:53:56.090Z,7.00
2023-02-19T19:59:58.640Z,8.23
2023-02-19T20:06:01.419Z,6.47
2023-02-19T20:12:08.326Z,6.90
2023-02-19T20:18:11.040Z,8.18
2023-02-19T20:30:25.342Z,7.22
2023-02-19T20:36:29.681Z,7.45
2023-02-19T20:42:32.652Z,8.13
2023-02-19T20:48:34.902Z,7.68
2023-02-19T20:54:38.877Z,7.45
2023-02-19T21:00:41.152Z,7.53
2023-02-19T21:06:43.451Z,6.82
2023-02-19T21:12:45.677Z,5.95
2023-02-19T21:18:48.228Z,6.18
2023-02-19T21:24:52.313Z,6.35
2023-02-19T21:30:54.777Z,6.07
2023-02-19T21:36:57.219Z,5.60
2023-02-19T21:42:59.388Z,7.28
2023-02-19T21:49:02.571Z,5.37
2023-02-19T21:55:05.082Z,5.15
2023-02-19T22:01:07.400Z,6.30
2023-02-19T22:07:09.552Z,5.90
2023-02-19T22:13:11.952Z,5.43
2023-02-19T22:19:14.245Z,5.40
2023-02-19T22:25:16.428Z,5.78
2023-02-19T22:31:21.305Z,5.55
2023-02-19T22:37:23.586Z,5.88
2023-02-19T22:43:25.766Z,6.03
2023-02-19T22:49:28.018Z,6.57
2023-02-19T22:55:31.221Z,7.30
2023-02-19T23:01:33.298Z,6.60
2023-02-19T23:07:35.404Z,7.27
2023-02-19T23:13:37.668Z,6.25
2023-02-19T23:19:40.303Z,7.95
2023-02-19T23:25:42.627Z,8.23
2023-02-19T23:31:44.990Z,7.30
2023-02-19T23:37:47.869Z,7.53
2023-02-19T23:49:51.933Z,8.00
2023-02-19T23:55:53.964Z,8.63
